Pagrindinis puslapis
METAR-TAF:

METAR-TAF

Oro uostai :

Taitung, Taiwan

platuma: 22-45-17N, ilguma: 121-06-06E, Aukštis: 44 m

Dabartinis oras

Ataskaita buvo paskelbta 57 minutes, ne 12:00 UTC
Vėjas 6 kt iš Šiaurės, svyruoja nuo Vakarų/Šiaurės Vakarų ir Rytų/Šiaurės Rytų
Temperatūra 25°C
Drėgmė 69%
Slėgis 1015 hPa
Matomumas 10 km arba daugiau
Mažai debesys ne aukštis 1800 ft
Su prošvaistėmis ne aukštis 7000 ft
Liūtis kaimynystėje

METAR: RCFN 211200Z 01006KT 300V060 9999 VCSH FEW018 BKN070 25/19 Q1015 NOSIG RMK A2998

Laikas: 20:57 (12:57 UTC)

Prognozė

Ataskaita buvo paskelbta 1 valandą ir 57 minutes, ne 11:00 UTC
Prognozė galioja nuo 21 metu 12 UTC su 22 metu 12 UTC
Vėjas 10 kt iš Šiaurės
Matomumas 10 km arba daugiau
Mažai debesys ne aukštis 1500 ft
Su prošvaistėmis ne aukštis 3200 ft
Laikinai
nuo 21 metu 22 UTC su 22 metu 02 UTC
Vėjas 5 kt iš Šiaurės/Šiaurės Rytų
Tapsmas
nuo 22 metu 02 UTC su 22 metu 04 UTC
Vėjas 5 kt iš Pietų/Pietryčių

TAF: RCFN 211100Z 2112/2212 36010KT 9999 FEW015 BKN032 TEMPO 2122/2202 03005KT BECMG 2202/2204 15005KT

Orai ataskaitas ir orų prognozės (METAR, TAF).

turimą stotys yra geltonos ir raudonos taškus žemėlapyje.

Perkelti pele per norėdami pamatyti stoties vardą.

Tada spustelėkite, norėdami matyti oro stebėjimo ir prognozės.

Norėdami pakeisti žemėlapį: spustelėkite ant žalios mygtukų su juodo kryžiaus žemyn,; žalią mygtuką su brūkšneliu, jei norite nutolinti; arba žalių rodyklių gretimoms žemėlapius.


METAR-TAF: